createdAt,value
2018-03-30T00:01:53.722Z,3.74
2018-03-30T00:04:22.119Z,3.61
2018-03-30T00:06:50.455Z,3.48
2018-03-30T00:09:30.856Z,3.42
2018-03-30T00:11:59.189Z,3.38
2018-03-30T00:14:27.545Z,3.32
2018-03-30T00:16:55.966Z,3.34
2018-03-30T00:19:24.270Z,3.43
2018-03-30T00:21:52.617Z,3.55
2018-03-30T00:24:20.935Z,3.48
2018-03-30T00:26:49.351Z,3.56
2018-03-30T00:29:17.731Z,3.26
2018-03-30T00:31:46.112Z,3.13
2018-03-30T00:34:14.524Z,3.14
2018-03-30T00:36:42.913Z,3.22
2018-03-30T00:39:11.206Z,2.89
2018-03-30T00:41:39.519Z,2.69
2018-03-30T00:44:07.838Z,2.51
2018-03-30T00:46:36.138Z,2.60
2018-03-30T00:49:04.492Z,2.77
2018-03-30T00:51:33.863Z,2.74
2018-03-30T00:54:02.245Z,2.88
2018-03-30T00:56:30.622Z,3.03
2018-03-30T00:58:58.999Z,2.70
2018-03-30T01:01:27.371Z,2.42
2018-03-30T01:03:55.677Z,2.45
2018-03-30T01:06:23.991Z,2.57
2018-03-30T01:08:52.305Z,2.75
2018-03-30T01:11:20.612Z,2.87
2018-03-30T01:13:48.946Z,2.61
2018-03-30T01:16:17.273Z,2.49
2018-03-30T01:18:45.573Z,2.69
2018-03-30T01:21:13.991Z,2.51
2018-03-30T01:23:42.306Z,2.24
2018-03-30T01:26:10.600Z,2.16
2018-03-30T01:28:38.906Z,2.07
2018-03-30T01:31:07.232Z,2.20
2018-03-30T01:33:35.545Z,2.36
2018-03-30T01:36:03.958Z,2.47
2018-03-30T01:38:32.341Z,2.57
2018-03-30T01:41:00.826Z,2.65
2018-03-30T01:43:29.223Z,2.71
2018-03-30T01:45:57.571Z,2.42
2018-03-30T01:48:26.004Z,2.52
2018-03-30T01:50:54.539Z,2.19
2018-03-30T01:53:22.918Z,2.00
2018-03-30T01:55:51.227Z,2.06
2018-03-30T01:58:19.533Z,2.26
2018-03-30T02:00:47.831Z,2.38
2018-03-30T02:03:16.211Z,2.44
2018-03-30T02:05:44.525Z,2.74
2018-03-30T02:08:12.862Z,2.83
2018-03-30T02:10:41.246Z,2.89
2018-03-30T02:13:09.633Z,2.99
2018-03-30T02:15:37.937Z,2.91
2018-03-30T02:18:06.246Z,2.75
2018-03-30T02:20:34.562Z,2.69
2018-03-30T02:23:02.876Z,2.74
2018-03-30T02:25:31.314Z,2.84
2018-03-30T02:27:59.623Z,2.65
2018-03-30T02:30:27.959Z,2.48
2018-03-30T02:32:56.402Z,2.51
2018-03-30T02:35:24.747Z,2.59
2018-03-30T02:37:53.063Z,2.71
2018-03-30T02:40:21.486Z,2.86
2018-03-30T02:42:49.780Z,2.81
2018-03-30T02:45:18.147Z,2.71
2018-03-30T02:47:46.478Z,2.49
2018-03-30T02:50:14.816Z,2.61
2018-03-30T02:52:43.125Z,2.73
2018-03-30T02:55:11.651Z,2.94
2018-03-30T02:57:40.084Z,3.06
2018-03-30T03:00:08.355Z,3.05
2018-03-30T03:02:36.756Z,2.96
2018-03-30T03:05:05.069Z,3.13
2018-03-30T03:07:33.452Z,3.20
2018-03-30T03:10:01.764Z,3.20
2018-03-30T03:12:30.091Z,3.20
2018-03-30T03:14:58.479Z,3.21
2018-03-30T03:17:26.786Z,3.21
2018-03-30T03:19:55.092Z,3.15
2018-03-30T03:22:23.423Z,3.15
2018-03-30T03:24:51.728Z,3.19
2018-03-30T03:27:20.082Z,3.20
2018-03-30T03:29:48.424Z,3.28
2018-03-30T03:32:16.734Z,3.19
2018-03-30T03:34:45.050Z,3.14
2018-03-30T03:37:13.464Z,3.18
2018-03-30T03:39:41.839Z,3.18
2018-03-30T03:42:10.153Z,3.33
2018-03-30T03:44:38.499Z,3.39
2018-03-30T03:47:06.807Z,3.41
2018-03-30T03:49:35.146Z,3.46
2018-03-30T03:52:03.531Z,3.50
2018-03-30T03:54:31.906Z,3.55
2018-03-30T03:57:00.229Z,3.39
2018-03-30T03:59:28.662Z,3.27
2018-03-30T04:01:56.985Z,3.21
2018-03-30T04:04:25.332Z,3.05
2018-03-30T04:06:53.701Z,3.04
2018-03-30T04:09:22.080Z,3.21
2018-03-30T04:11:50.399Z,3.30
2018-03-30T04:14:18.735Z,3.43
2018-03-30T04:16:47.048Z,3.33
2018-03-30T04:19:15.369Z,3.41
2018-03-30T04:21:43.683Z,3.33
2018-03-30T04:24:11.999Z,3.46
2018-03-30T04:26:40.315Z,3.47
2018-03-30T04:29:08.699Z,3.38
2018-03-30T04:31:37.012Z,3.40
2018-03-30T04:34:05.331Z,3.43
2018-03-30T04:36:33.673Z,3.54
2018-03-30T04:39:02.001Z,3.60
2018-03-30T04:41:30.323Z,3.51
2018-03-30T04:43:59.164Z,3.45
2018-03-30T04:46:27.550Z,3.52
2018-03-30T04:48:56.384Z,3.54
2018-03-30T04:51:24.712Z,3.54
2018-03-30T04:53:53.075Z,3.41
2018-03-30T04:56:21.375Z,3.19
2018-03-30T04:58:49.723Z,3.40
2018-03-30T05:01:18.047Z,3.33
2018-03-30T05:03:46.399Z,3.37
2018-03-30T05:06:14.886Z,3.55
2018-03-30T05:08:43.259Z,3.61
2018-03-30T05:11:11.598Z,3.65
2018-03-30T05:13:40.018Z,3.73
2018-03-30T05:16:08.374Z,3.59
2018-03-30T05:18:36.698Z,3.54
2018-03-30T05:21:05.018Z,3.36
2018-03-30T05:23:33.433Z,3.33
2018-03-30T05:26:01.758Z,3.23
2018-03-30T05:28:31.117Z,3.61
2018-03-30T05:30:59.548Z,3.78
2018-03-30T05:33:27.879Z,3.63
2018-03-30T05:35:56.217Z,3.61
2018-03-30T05:38:24.623Z,3.69
2018-03-30T05:40:52.938Z,3.69
2018-03-30T05:43:21.315Z,3.66
2018-03-30T05:45:49.682Z,3.82
2018-03-30T05:48:18.015Z,3.80
2018-03-30T05:50:46.345Z,3.87
2018-03-30T05:53:14.687Z,3.84
2018-03-30T05:55:43.020Z,3.77
2018-03-30T05:58:11.438Z,3.82
2018-03-30T06:00:39.820Z,3.78
2018-03-30T06:03:08.171Z,3.82
2018-03-30T06:05:36.478Z,3.84
2018-03-30T06:08:04.920Z,3.95
2018-03-30T06:10:33.216Z,3.98
2018-03-30T06:13:01.535Z,4.00
2018-03-30T06:15:29.897Z,4.06
2018-03-30T06:17:58.219Z,4.06
2018-03-30T06:20:26.609Z,4.10
2018-03-30T06:22:55.029Z,4.18
2018-03-30T06:25:23.398Z,4.32
2018-03-30T06:27:51.739Z,4.48
2018-03-30T06:30:20.064Z,4.67
2018-03-30T06:32:48.442Z,4.77
2018-03-30T06:35:16.814Z,4.86
2018-03-30T06:37:45.214Z,5.08
2018-03-30T06:40:13.548Z,5.07
2018-03-30T06:42:41.937Z,5.15
2018-03-30T06:45:10.338Z,5.05
2018-03-30T06:47:38.653Z,5.15
2018-03-30T06:50:06.981Z,5.27
2018-03-30T06:52:35.359Z,5.37
2018-03-30T06:55:03.688Z,5.44
2018-03-30T06:57:32.011Z,5.63
2018-03-30T07:00:00.398Z,5.66
2018-03-30T07:02:28.749Z,5.81
2018-03-30T07:04:57.071Z,5.89
2018-03-30T07:07:25.427Z,6.05
2018-03-30T07:09:53.747Z,6.16
2018-03-30T07:12:22.073Z,6.12
2018-03-30T07:14:50.385Z,6.28
2018-03-30T07:17:18.890Z,6.25
2018-03-30T07:19:47.217Z,6.25
2018-03-30T07:22:15.594Z,6.39
2018-03-30T07:24:43.972Z,6.49
2018-03-30T07:27:12.348Z,6.39
2018-03-30T07:29:40.672Z,6.39
2018-03-30T07:32:09.003Z,6.55
2018-03-30T07:34:37.388Z,6.81
2018-03-30T07:37:05.712Z,7.15
2018-03-30T07:39:34.027Z,7.33
2018-03-30T07:42:02.369Z,7.31
2018-03-30T07:44:30.703Z,7.31
2018-03-30T07:46:59.014Z,7.32
2018-03-30T07:49:27.343Z,7.39
2018-03-30T07:51:55.647Z,7.45
2018-03-30T07:54:23.974Z,7.43
2018-03-30T07:56:52.293Z,7.64
2018-03-30T07:59:20.658Z,7.48
2018-03-30T08:01:49.035Z,7.86
2018-03-30T08:04:17.412Z,7.85
2018-03-30T08:06:45.728Z,7.83
2018-03-30T08:09:14.102Z,7.99
2018-03-30T08:11:42.540Z,7.97
2018-03-30T08:14:10.875Z,8.20
2018-03-30T08:16:39.208Z,8.06
2018-03-30T08:19:07.515Z,8.27
2018-03-30T08:21:35.858Z,8.35
2018-03-30T08:24:04.186Z,8.44
2018-03-30T08:26:32.511Z,8.50
2018-03-30T08:29:00.815Z,8.11
2018-03-30T08:31:29.201Z,8.18
2018-03-30T08:33:57.564Z,8.40
2018-03-30T08:36:25.851Z,8.45
2018-03-30T08:38:54.198Z,8.21
2018-03-30T08:41:22.578Z,8.26
2018-03-30T08:43:50.990Z,8.24
2018-03-30T08:46:19.329Z,8.27
2018-03-30T08:48:47.712Z,8.67
2018-03-30T08:51:16.091Z,8.57
2018-03-30T08:53:44.461Z,8.90
2018-03-30T08:56:12.809Z,8.89
2018-03-30T08:58:41.157Z,8.71
2018-03-30T09:01:09.443Z,8.86
2018-03-30T09:03:37.746Z,8.93
2018-03-30T09:06:06.159Z,8.99
2018-03-30T09:08:34.492Z,8.86
2018-03-30T09:11:02.790Z,9.37
2018-03-30T09:13:31.122Z,9.34
2018-03-30T09:15:59.433Z,9.48
2018-03-30T09:18:27.744Z,9.73
2018-03-30T09:20:56.069Z,9.98
2018-03-30T09:23:24.398Z,9.65
2018-03-30T09:25:52.703Z,10.20
2018-03-30T09:28:21.019Z,10.49
2018-03-30T09:30:49.339Z,10.77
2018-03-30T09:33:23.285Z,10.90
2018-03-30T09:35:51.710Z,11.14
2018-03-30T09:38:20.014Z,11.31
2018-03-30T09:40:48.324Z,11.05
2018-03-30T09:43:16.657Z,10.87
2018-03-30T09:45:44.979Z,10.92
2018-03-30T09:48:13.299Z,11.28
2018-03-30T09:50:41.711Z,11.53
2018-03-30T09:53:10.047Z,11.63
2018-03-30T09:55:38.361Z,11.32
2018-03-30T09:58:06.711Z,11.17
2018-03-30T10:00:35.024Z,11.01
2018-03-30T10:03:05.185Z,11.21
2018-03-30T10:05:33.586Z,11.40
2018-03-30T10:08:01.902Z,11.54
2018-03-30T10:10:30.234Z,11.41
2018-03-30T10:12:58.716Z,11.41
2018-03-30T10:15:27.094Z,11.59
2018-03-30T10:17:55.442Z,12.01
2018-03-30T10:20:23.760Z,12.09
2018-03-30T10:22:52.130Z,12.39
2018-03-30T10:25:20.507Z,12.76
2018-03-30T10:27:48.885Z,12.80
2018-03-30T10:30:17.226Z,13.11
2018-03-30T10:32:45.538Z,13.49
2018-03-30T10:35:13.907Z,13.07
2018-03-30T10:37:42.291Z,13.08
2018-03-30T10:40:10.622Z,13.25
2018-03-30T10:42:38.955Z,13.08
2018-03-30T10:45:07.300Z,12.62
2018-03-30T10:47:35.700Z,12.53
2018-03-30T10:50:04.022Z,12.44
2018-03-30T10:52:32.400Z,12.71
2018-03-30T10:55:00.777Z,13.06
2018-03-30T10:57:29.438Z,12.82
2018-03-30T10:59:57.761Z,12.65
2018-03-30T11:02:26.091Z,12.91
2018-03-30T11:04:54.496Z,13.10
2018-03-30T11:07:22.798Z,13.56
2018-03-30T11:09:51.143Z,13.57
2018-03-30T11:12:19.451Z,13.93
2018-03-30T11:14:47.771Z,13.42
2018-03-30T11:17:16.155Z,13.96
2018-03-30T11:19:44.562Z,14.14
2018-03-30T11:22:12.920Z,14.54
2018-03-30T11:24:41.325Z,15.16
2018-03-30T11:27:09.655Z,15.11
2018-03-30T11:29:37.986Z,14.93
2018-03-30T11:32:06.420Z,14.51
2018-03-30T11:34:34.796Z,14.84
2018-03-30T11:37:03.109Z,15.05
2018-03-30T11:39:31.427Z,15.36
2018-03-30T11:41:59.783Z,16.05
2018-03-30T11:44:28.125Z,16.47
2018-03-30T11:46:56.475Z,16.20
2018-03-30T11:49:24.762Z,16.06
2018-03-30T11:51:53.078Z,15.78
2018-03-30T11:54:21.395Z,15.81
2018-03-30T11:56:49.792Z,15.95
2018-03-30T11:59:18.171Z,16.53
2018-03-30T12:01:46.548Z,16.33
2018-03-30T12:04:14.882Z,16.56
2018-03-30T12:06:43.306Z,16.57
2018-03-30T12:09:11.728Z,16.01
2018-03-30T12:11:40.064Z,15.62
2018-03-30T12:14:08.441Z,16.13
2018-03-30T12:16:36.818Z,16.17
2018-03-30T12:19:05.147Z,17.10
2018-03-30T12:21:33.479Z,17.73
2018-03-30T12:24:01.955Z,18.13
2018-03-30T12:26:30.262Z,19.63
2018-03-30T12:28:58.619Z,21.63
2018-03-30T12:31:26.958Z,21.64
2018-03-30T12:33:55.267Z,20.55
2018-03-30T12:36:23.584Z,19.20
2018-03-30T12:38:52.735Z,17.66
2018-03-30T12:41:21.066Z,16.82
2018-03-30T12:43:49.380Z,16.26
2018-03-30T12:46:17.725Z,15.82
2018-03-30T12:48:46.036Z,15.73
2018-03-30T12:51:14.379Z,16.33
2018-03-30T12:53:42.795Z,16.38
2018-03-30T12:56:11.175Z,17.61
2018-03-30T12:58:39.487Z,18.58
2018-03-30T13:01:07.789Z,20.08
2018-03-30T13:03:36.139Z,20.74
2018-03-30T13:06:04.491Z,22.41
2018-03-30T13:08:32.863Z,21.28
2018-03-30T13:11:01.383Z,20.03
2018-03-30T13:13:29.731Z,20.82
2018-03-30T13:15:58.046Z,20.72
2018-03-30T13:18:26.374Z,20.57
2018-03-30T13:20:54.691Z,21.48
2018-03-30T13:23:23.024Z,21.94
2018-03-30T13:25:51.374Z,21.67
2018-03-30T13:28:19.685Z,23.40
2018-03-30T13:30:48.078Z,22.65
2018-03-30T13:33:16.395Z,22.41
2018-03-30T13:35:44.717Z,21.61
2018-03-30T13:38:13.121Z,22.01
2018-03-30T13:40:41.476Z,22.59
2018-03-30T13:43:09.803Z,23.87
2018-03-30T13:45:38.131Z,24.62
2018-03-30T13:48:06.463Z,24.01
2018-03-30T13:53:38.158Z,24.24
2018-03-30T13:56:07.974Z,24.03
2018-03-30T13:58:36.394Z,24.12
2018-03-30T14:01:06.536Z,23.64
2018-03-30T14:03:40.759Z,22.61
2018-03-30T14:06:24.849Z,22.70
2018-03-30T14:08:54.060Z,23.14
2018-03-30T14:11:36.573Z,22.67
2018-03-30T14:14:04.882Z,23.42
2018-03-30T14:16:33.229Z,23.80
2018-03-30T14:19:15.839Z,24.34
2018-03-30T14:21:50.675Z,26.18
2018-03-30T14:24:18.991Z,24.98
2018-03-30T14:26:54.006Z,25.55
2018-03-30T14:29:25.190Z,24.76
2018-03-30T14:31:53.530Z,24.45
2018-03-30T14:34:22.686Z,23.22
2018-03-30T14:37:07.462Z,25.62
2018-03-30T14:39:50.595Z,24.61
2018-03-30T14:42:22.411Z,23.95
2018-03-30T14:44:54.242Z,25.72
2018-03-30T14:47:24.425Z,25.69
2018-03-30T14:53:09.748Z,25.10
2018-03-30T14:55:42.427Z,24.14
2018-03-30T14:58:14.017Z,22.97
2018-03-30T15:00:53.126Z,24.65
2018-03-30T15:03:22.103Z,25.12
2018-03-30T15:05:53.075Z,26.42
2018-03-30T15:11:21.066Z,23.45
2018-03-30T15:13:54.838Z,25.69
2018-03-30T15:19:20.611Z,24.97
2018-03-30T15:22:05.703Z,26.41
2018-03-30T15:24:37.419Z,24.69
2018-03-30T15:27:24.433Z,24.89
2018-03-30T15:30:08.419Z,23.90
2018-03-30T15:32:40.370Z,24.73
2018-03-30T15:35:09.630Z,25.21
2018-03-30T15:37:37.975Z,24.79
2018-03-30T15:40:09.144Z,24.28
2018-03-30T15:42:38.288Z,25.38
2018-03-30T15:45:06.716Z,25.22
2018-03-30T15:47:35.101Z,25.60
2018-03-30T15:50:03.424Z,24.97
2018-03-30T15:52:31.750Z,24.46
2018-03-30T15:55:00.100Z,23.88
2018-03-30T15:57:28.413Z,24.96
2018-03-30T15:59:57.367Z,23.88
2018-03-30T16:02:25.685Z,24.53
2018-03-30T16:04:54.053Z,25.26
2018-03-30T16:07:22.425Z,25.10
2018-03-30T16:10:01.719Z,24.45
2018-03-30T16:12:31.811Z,24.05
2018-03-30T16:15:00.143Z,24.36
2018-03-30T16:17:28.463Z,23.58
2018-03-30T16:19:56.458Z,23.25
2018-03-30T16:22:24.332Z,22.57
2018-03-30T16:24:52.098Z,23.66
2018-03-30T16:27:19.904Z,23.47
2018-03-30T16:29:47.688Z,22.32
2018-03-30T16:32:15.502Z,22.16
2018-03-30T16:34:43.363Z,21.18
2018-03-30T16:37:11.261Z,20.80
2018-03-30T16:39:39.047Z,20.65
2018-03-30T16:42:06.850Z,20.18
2018-03-30T16:44:35.675Z,20.14
2018-03-30T16:47:03.620Z,19.72
2018-03-30T16:49:31.648Z,17.39
2018-03-30T16:51:59.440Z,17.37
2018-03-30T16:54:27.237Z,17.25
2018-03-30T16:56:55.073Z,16.87
2018-03-30T16:59:22.829Z,16.16
2018-03-30T17:01:50.609Z,15.45
2018-03-30T17:04:18.394Z,15.03
2018-03-30T17:06:46.174Z,14.85
2018-03-30T17:09:13.981Z,14.92
2018-03-30T17:11:41.800Z,14.67
2018-03-30T17:14:09.614Z,14.39
2018-03-30T17:16:37.494Z,14.31
2018-03-30T17:19:05.292Z,14.20
2018-03-30T17:21:33.129Z,14.05
2018-03-30T17:24:00.995Z,14.02
2018-03-30T17:26:28.785Z,13.92
2018-03-30T17:28:56.591Z,13.83
2018-03-30T17:31:24.371Z,13.86
2018-03-30T17:33:52.248Z,13.68
2018-03-30T17:36:20.139Z,13.74
2018-03-30T17:38:47.926Z,13.53
2018-03-30T17:41:15.740Z,13.32
2018-03-30T17:43:43.527Z,13.48
2018-03-30T17:46:11.300Z,13.44
2018-03-30T17:48:39.180Z,13.16
2018-03-30T17:51:06.961Z,12.98
2018-03-30T17:53:34.758Z,12.93
2018-03-30T17:56:02.654Z,12.84
2018-03-30T17:58:30.546Z,12.68
2018-03-30T18:00:58.373Z,12.59
2018-03-30T18:03:26.174Z,12.49
2018-03-30T18:05:53.954Z,12.48
2018-03-30T18:08:21.885Z,12.53
2018-03-30T18:10:49.651Z,12.36
2018-03-30T18:13:17.511Z,12.44
2018-03-30T18:15:45.308Z,12.12
2018-03-30T18:18:13.135Z,12.19
2018-03-30T18:20:40.931Z,12.22
2018-03-30T18:23:08.706Z,12.24
2018-03-30T18:25:36.563Z,11.89
2018-03-30T18:28:04.288Z,11.84
2018-03-30T18:30:32.153Z,11.78
2018-03-30T18:32:59.946Z,11.96
2018-03-30T18:35:27.739Z,11.83
2018-03-30T18:37:55.517Z,11.72
2018-03-30T18:40:23.302Z,11.64
2018-03-30T18:42:51.173Z,11.62
2018-03-30T18:45:18.999Z,11.54
2018-03-30T18:47:46.790Z,11.43
2018-03-30T18:50:14.578Z,11.43
2018-03-30T18:52:42.366Z,11.33
2018-03-30T18:55:10.141Z,11.47
2018-03-30T18:57:38.833Z,11.33
2018-03-30T19:00:06.595Z,11.37
2018-03-30T19:02:34.421Z,11.43
2018-03-30T19:05:02.280Z,11.37
2018-03-30T19:07:30.155Z,11.39
2018-03-30T19:09:58.010Z,11.29
2018-03-30T19:12:25.811Z,11.43
2018-03-30T19:14:53.578Z,11.20
2018-03-30T19:17:21.410Z,11.17
2018-03-30T19:19:49.319Z,11.27
2018-03-30T19:22:17.143Z,11.12
2018-03-30T19:24:45.018Z,11.09
2018-03-30T19:27:12.795Z,10.91
2018-03-30T19:29:40.575Z,11.06
2018-03-30T19:32:08.395Z,11.08
2018-03-30T19:34:36.171Z,10.96
2018-03-30T19:37:04.026Z,11.06
2018-03-30T19:39:31.898Z,10.92
2018-03-30T19:41:59.766Z,10.84
2018-03-30T19:44:27.637Z,10.82
2018-03-30T19:46:55.500Z,10.88
2018-03-30T19:49:23.292Z,10.96
2018-03-30T19:51:51.343Z,10.82
2018-03-30T19:54:19.143Z,10.81
2018-03-30T19:56:46.979Z,10.72
2018-03-30T19:59:14.779Z,10.71
2018-03-30T20:01:42.554Z,10.65
2018-03-30T20:04:10.354Z,10.61
2018-03-30T20:06:38.198Z,10.55
2018-03-30T20:09:05.996Z,10.49
2018-03-30T20:11:33.860Z,10.48
2018-03-30T20:14:01.672Z,10.35
2018-03-30T20:16:29.508Z,10.27
2018-03-30T20:18:57.363Z,10.34
2018-03-30T20:21:25.247Z,10.37
2018-03-30T20:23:53.048Z,10.42
2018-03-30T20:26:20.827Z,10.34
2018-03-30T20:28:48.722Z,10.50
2018-03-30T20:31:16.485Z,10.46
2018-03-30T20:33:44.340Z,10.26
2018-03-30T20:36:12.216Z,10.34
2018-03-30T20:38:40.008Z,10.38
2018-03-30T20:41:07.839Z,10.40
2018-03-30T20:43:35.646Z,10.34
2018-03-30T20:46:03.418Z,10.47
2018-03-30T20:48:31.216Z,10.33
2018-03-30T20:50:59.002Z,10.38
2018-03-30T20:53:26.824Z,10.28
2018-03-30T20:55:54.634Z,10.20
2018-03-30T20:58:22.613Z,10.19
2018-03-30T21:00:50.428Z,10.18
2018-03-30T21:03:18.235Z,10.07
2018-03-30T21:05:46.087Z,10.01
2018-03-30T21:08:13.879Z,9.94
2018-03-30T21:10:41.722Z,9.79
2018-03-30T21:13:09.498Z,9.85
2018-03-30T21:15:37.364Z,9.59
2018-03-30T21:18:05.129Z,9.35
2018-03-30T21:20:32.935Z,9.48
2018-03-30T21:23:00.739Z,9.34
2018-03-30T21:25:28.606Z,9.44
2018-03-30T21:27:56.407Z,9.36
2018-03-30T21:30:24.255Z,9.15
2018-03-30T21:32:52.030Z,9.22
2018-03-30T21:35:19.824Z,9.21
2018-03-30T21:37:47.598Z,9.00
2018-03-30T21:40:15.498Z,8.91
2018-03-30T21:42:43.368Z,8.84
2018-03-30T21:45:11.185Z,8.81
2018-03-30T21:47:38.957Z,8.66
2018-03-30T21:50:06.747Z,8.58
2018-03-30T21:52:34.647Z,8.78
2018-03-30T21:55:02.460Z,8.68
2018-03-30T21:57:30.319Z,8.52
2018-03-30T21:59:58.090Z,8.53
2018-03-30T22:02:25.896Z,8.61
2018-03-30T22:04:53.750Z,8.42
2018-03-30T22:07:21.588Z,8.37
2018-03-30T22:09:49.399Z,8.35
2018-03-30T22:12:17.182Z,8.45
2018-03-30T22:14:45.027Z,8.31
2018-03-30T22:17:12.831Z,8.13
2018-03-30T22:19:40.642Z,8.24
2018-03-30T22:22:08.512Z,8.25
2018-03-30T22:24:36.282Z,7.92
2018-03-30T22:27:04.084Z,8.17
2018-03-30T22:29:31.939Z,7.96
2018-03-30T22:31:59.773Z,8.11
2018-03-30T22:34:27.643Z,7.94
2018-03-30T22:36:55.441Z,7.85
2018-03-30T22:39:23.214Z,7.84
2018-03-30T22:41:51.006Z,7.69
2018-03-30T22:44:18.771Z,7.76
2018-03-30T22:46:46.632Z,7.77
2018-03-30T22:49:14.424Z,7.66
2018-03-30T22:51:42.231Z,7.51
2018-03-30T22:54:10.054Z,7.53
2018-03-30T22:56:37.928Z,7.40
2018-03-30T22:59:05.797Z,7.44
2018-03-30T23:01:33.582Z,7.46
2018-03-30T23:04:02.282Z,7.36
2018-03-30T23:06:30.111Z,7.37
2018-03-30T23:08:58.480Z,7.23
2018-03-30T23:11:26.248Z,7.13
2018-03-30T23:13:54.042Z,7.16
2018-03-30T23:16:21.896Z,6.98
2018-03-30T23:18:49.743Z,6.90
2018-03-30T23:21:18.115Z,6.99
2018-03-30T23:23:45.991Z,7.02
2018-03-30T23:26:13.783Z,6.80
2018-03-30T23:28:41.571Z,6.84
2018-03-30T23:31:09.504Z,6.84
2018-03-30T23:33:37.302Z,6.90
2018-03-30T23:36:05.070Z,6.95
2018-03-30T23:38:32.878Z,6.91
2018-03-30T23:41:00.758Z,6.65
2018-03-30T23:43:28.551Z,6.89
2018-03-30T23:45:56.375Z,6.74
2018-03-30T23:48:24.164Z,6.70
2018-03-30T23:50:51.958Z,6.64
2018-03-30T23:53:20.506Z,6.68
2018-03-30T23:55:48.276Z,6.71
2018-03-30T23:58:16.091Z,6.66
